createdAt,value
2018-03-23T00:00:09.134Z,18.37
2018-03-23T00:02:37.239Z,16.35
2018-03-23T00:05:05.983Z,17.52
2018-03-23T00:07:34.087Z,15.82
2018-03-23T00:10:02.178Z,16.58
2018-03-23T00:12:30.300Z,16.15
2018-03-23T00:14:58.407Z,17.05
2018-03-23T00:17:26.503Z,16.02
2018-03-23T00:19:54.599Z,15.48
2018-03-23T00:22:22.700Z,15.85
2018-03-23T00:24:51.104Z,14.35
2018-03-23T00:27:19.495Z,14.55
2018-03-23T00:29:47.582Z,14.50
2018-03-23T00:32:15.838Z,12.88
2018-03-23T00:34:43.930Z,12.80
2018-03-23T00:37:12.943Z,12.05
2018-03-23T00:39:41.054Z,12.50
2018-03-23T00:42:09.151Z,11.43
2018-03-23T00:44:38.337Z,12.32
2018-03-23T00:47:06.442Z,11.40
2018-03-23T00:49:34.584Z,10.43
2018-03-23T00:52:02.666Z,11.43
2018-03-23T00:54:31.014Z,10.30
2018-03-23T00:56:59.970Z,9.20
2018-03-23T00:59:28.167Z,7.97
2018-03-23T01:01:56.251Z,8.18
2018-03-23T01:04:24.367Z,8.60
2018-03-23T01:06:52.459Z,8.20
2018-03-23T01:09:20.551Z,7.12
2018-03-23T01:11:48.642Z,7.70
2018-03-23T01:14:16.767Z,6.78
2018-03-23T01:16:45.620Z,7.00
2018-03-23T01:19:13.711Z,7.55
2018-03-23T01:21:41.835Z,7.28
2018-03-23T01:24:09.916Z,7.07
2018-03-23T01:26:38.002Z,6.62
2018-03-23T01:29:06.135Z,7.75
2018-03-23T01:31:34.210Z,6.62
2018-03-23T01:34:02.315Z,6.32
2018-03-23T01:36:30.445Z,7.10
2018-03-23T01:38:58.513Z,7.62
2018-03-23T01:41:27.285Z,5.95
2018-03-23T01:43:55.395Z,6.97
2018-03-23T01:46:23.770Z,7.28
2018-03-23T01:48:51.919Z,7.22
2018-03-23T01:51:20.034Z,9.38
2018-03-23T01:53:49.031Z,6.78
2018-03-23T01:56:17.781Z,8.00
2018-03-23T01:58:45.925Z,7.80
2018-03-23T02:01:14.007Z,7.85
2018-03-23T02:03:42.109Z,7.30
2018-03-23T02:06:11.170Z,8.10
2018-03-23T02:08:39.247Z,8.73
2018-03-23T02:11:07.571Z,8.05
2018-03-23T02:13:35.690Z,8.32
2018-03-23T02:16:03.773Z,9.27
2018-03-23T02:18:31.875Z,9.27
2018-03-23T02:21:03.727Z,8.95
2018-03-23T02:23:31.811Z,6.43
2018-03-23T02:26:00.285Z,8.88
2018-03-23T02:28:29.570Z,8.10
2018-03-23T02:30:57.668Z,9.73
2018-03-23T02:33:26.365Z,8.95
2018-03-23T02:35:55.107Z,9.65
2018-03-23T02:38:23.207Z,9.15
2018-03-23T02:40:51.324Z,10.05
2018-03-23T02:43:19.455Z,9.57
2018-03-23T02:45:48.343Z,9.65
2018-03-23T02:48:17.070Z,10.30
2018-03-23T02:50:45.892Z,9.52
2018-03-23T02:53:14.032Z,10.32
2018-03-23T02:55:42.122Z,9.82
2018-03-23T02:58:10.261Z,9.80
2018-03-23T03:00:38.412Z,10.57
2018-03-23T03:03:06.532Z,10.65
2018-03-23T03:05:34.610Z,11.40
2018-03-23T03:08:02.731Z,9.82
2018-03-23T03:10:31.171Z,10.20
2018-03-23T03:12:59.265Z,11.00
2018-03-23T03:15:27.378Z,10.40
2018-03-23T03:17:55.501Z,11.50
2018-03-23T03:20:23.591Z,11.63
2018-03-23T03:22:51.696Z,10.38
2018-03-23T03:25:19.790Z,12.05
2018-03-23T03:27:48.643Z,11.15
2018-03-23T03:30:16.784Z,11.12
2018-03-23T03:32:44.888Z,11.15
2018-03-23T03:35:13.157Z,11.20
2018-03-23T03:37:41.304Z,10.88
2018-03-23T03:40:09.883Z,11.20
2018-03-23T03:42:37.995Z,10.25
2018-03-23T03:45:06.106Z,10.52
2018-03-23T03:47:34.231Z,10.93
2018-03-23T03:50:02.431Z,10.93
2018-03-23T03:52:30.524Z,11.50
2018-03-23T03:54:58.827Z,10.23
2018-03-23T03:57:26.969Z,10.90
2018-03-23T03:59:55.969Z,10.73
2018-03-23T04:02:24.449Z,10.02
2018-03-23T04:04:52.812Z,10.75
2018-03-23T04:20:20.927Z,11.20
2018-03-23T04:22:49.037Z,12.43
2018-03-23T04:25:17.145Z,12.82
2018-03-23T04:27:45.242Z,12.48
2018-03-23T04:30:13.573Z,12.68
2018-03-23T04:32:41.687Z,13.35
2018-03-23T04:35:09.783Z,11.63
2018-03-23T04:37:42.883Z,13.60
2018-03-23T04:40:10.993Z,13.10
2018-03-23T04:42:39.435Z,12.10
2018-03-23T04:45:07.547Z,14.18
2018-03-23T04:47:35.705Z,14.05
2018-03-23T04:50:03.826Z,13.57
2018-03-23T04:52:32.149Z,13.45
2018-03-23T04:55:00.505Z,14.23
2018-03-23T04:57:28.643Z,13.98
2018-03-23T04:59:56.743Z,13.15
2018-03-23T05:02:25.812Z,12.80
2018-03-23T05:04:54.547Z,11.68
2018-03-23T05:07:22.646Z,12.52
2018-03-23T05:09:50.748Z,12.30
2018-03-23T05:25:19.803Z,11.68
2018-03-23T05:27:47.887Z,10.57
2018-03-23T05:30:15.989Z,10.32
2018-03-23T05:32:44.109Z,11.18
2018-03-23T05:35:12.201Z,10.63
2018-03-23T05:37:40.308Z,10.27
2018-03-23T05:40:09.229Z,9.93
2018-03-23T05:42:37.993Z,10.65
2018-03-23T05:45:06.084Z,12.52
2018-03-23T05:47:34.209Z,10.80
2018-03-23T05:50:02.322Z,11.18
2018-03-23T05:52:30.645Z,11.70
2018-03-23T05:54:58.745Z,10.55
2018-03-23T05:57:26.908Z,11.18
2018-03-23T05:59:55.043Z,10.43
2018-03-23T06:02:23.103Z,10.82
2018-03-23T06:04:51.205Z,11.65
2018-03-23T06:07:19.347Z,10.98
2018-03-23T06:09:47.452Z,10.88
2018-03-23T06:12:15.891Z,10.73
2018-03-23T06:14:43.993Z,10.38
2018-03-23T06:17:12.559Z,9.85
2018-03-23T06:19:40.656Z,10.32
2018-03-23T06:22:08.791Z,9.90
2018-03-23T06:24:36.899Z,10.50
2018-03-23T06:27:05.007Z,10.93
2018-03-23T06:29:33.123Z,9.05
2018-03-23T06:32:01.239Z,10.20
2018-03-23T06:34:29.318Z,9.88
2018-03-23T06:36:57.441Z,10.32
2018-03-23T06:39:25.574Z,9.38
2018-03-23T06:41:54.665Z,7.68
2018-03-23T06:44:22.795Z,10.80
2018-03-23T06:46:50.905Z,10.18
2018-03-23T06:49:19.013Z,10.95
2018-03-23T06:54:21.661Z,11.85
2018-03-23T06:56:50.719Z,11.63
2018-03-23T06:59:18.831Z,11.93
2018-03-23T07:01:46.947Z,11.73
2018-03-23T07:04:15.061Z,12.00
2018-03-23T07:06:43.157Z,12.02
2018-03-23T07:09:12.171Z,10.95
2018-03-23T07:11:40.299Z,11.50
2018-03-23T07:14:08.393Z,11.43
2018-03-23T07:16:36.508Z,12.07
2018-03-23T07:19:05.117Z,10.93
2018-03-23T07:21:33.189Z,12.35
2018-03-23T07:24:01.309Z,11.65
2018-03-23T07:26:29.429Z,10.75
2018-03-23T07:28:57.513Z,10.35
2018-03-23T07:31:25.625Z,9.30
2018-03-23T07:33:53.722Z,10.27
2018-03-23T07:36:21.820Z,9.55
2018-03-23T07:38:49.930Z,9.55
2018-03-23T07:41:18.025Z,9.95
2018-03-23T07:43:46.112Z,9.10
2018-03-23T07:46:14.235Z,10.50
2018-03-23T07:48:42.378Z,9.27
2018-03-23T07:51:10.473Z,8.70
2018-03-23T07:53:38.601Z,8.68
2018-03-23T07:56:06.954Z,10.00
2018-03-23T07:58:35.059Z,10.50
2018-03-23T08:01:03.312Z,9.23
2018-03-23T08:03:31.394Z,8.32
2018-03-23T08:05:59.494Z,8.85
2018-03-23T08:08:27.611Z,8.52
2018-03-23T08:10:55.708Z,8.48
2018-03-23T08:13:23.797Z,8.20
2018-03-23T08:15:51.893Z,8.20
2018-03-23T08:18:20.028Z,6.93
2018-03-23T08:20:48.204Z,8.02
2018-03-23T08:23:16.266Z,8.27
2018-03-23T08:25:44.377Z,9.18
2018-03-23T08:28:12.475Z,8.65
2018-03-23T08:30:40.575Z,8.90
2018-03-23T08:33:08.674Z,6.82
2018-03-23T08:35:36.776Z,9.20
2018-03-23T08:38:04.900Z,6.25
2018-03-23T08:40:32.997Z,9.15
2018-03-23T08:43:01.099Z,9.40
2018-03-23T08:45:29.233Z,10.27
2018-03-23T08:47:57.320Z,8.70
2018-03-23T08:50:25.414Z,9.00
2018-03-23T08:52:53.520Z,11.00
2018-03-23T08:55:21.704Z,9.20
2018-03-23T08:57:49.785Z,10.52
2018-03-23T09:02:50.879Z,9.77
2018-03-23T09:05:19.008Z,11.82
2018-03-23T09:07:48.010Z,9.95
2018-03-23T09:10:16.108Z,13.38
2018-03-23T09:12:44.324Z,13.48
2018-03-23T09:15:12.410Z,14.55
2018-03-23T09:17:40.531Z,15.35
2018-03-23T09:20:08.654Z,13.95
2018-03-23T09:22:36.773Z,15.38
2018-03-23T09:25:04.870Z,14.70
2018-03-23T09:27:32.966Z,14.98
2018-03-23T09:30:01.078Z,10.30
2018-03-23T09:32:29.338Z,7.28
2018-03-23T09:34:57.441Z,11.93
2018-03-23T09:37:25.534Z,10.40
2018-03-23T09:39:53.728Z,10.48
2018-03-23T09:42:21.810Z,11.32
2018-03-23T09:44:49.928Z,11.43
2018-03-23T09:47:18.020Z,11.20
2018-03-23T09:49:46.121Z,13.13
2018-03-23T09:52:14.530Z,11.20
2018-03-23T09:54:43.106Z,11.35
2018-03-23T10:10:11.494Z,11.75
2018-03-23T10:12:40.214Z,9.30
2018-03-23T10:15:08.322Z,10.45
2018-03-23T10:17:36.430Z,9.65
2018-03-23T10:20:04.536Z,10.85
2018-03-23T10:22:32.638Z,11.30
2018-03-23T10:25:00.767Z,12.15
2018-03-23T10:27:28.924Z,10.27
2018-03-23T10:29:57.036Z,9.32
2018-03-23T10:32:25.118Z,6.68
2018-03-23T10:34:54.138Z,6.15
2018-03-23T10:37:22.222Z,8.20
2018-03-23T10:39:50.362Z,7.62
2018-03-23T10:42:18.451Z,6.50
2018-03-23T10:44:47.385Z,7.85
2018-03-23T10:47:15.469Z,5.57
2018-03-23T10:49:43.578Z,9.18
2018-03-23T10:52:11.695Z,8.38
2018-03-23T10:54:39.835Z,8.82
2018-03-23T10:57:07.910Z,5.57
2018-03-23T10:59:36.392Z,9.05
2018-03-23T11:02:07.320Z,8.02
2018-03-23T11:04:35.426Z,8.98
2018-03-23T11:07:03.534Z,8.45
2018-03-23T11:09:31.645Z,7.80
2018-03-23T11:11:59.772Z,7.35
2018-03-23T11:14:27.868Z,8.60
2018-03-23T11:16:55.954Z,7.80
2018-03-23T11:19:24.538Z,8.48
2018-03-23T11:21:52.640Z,5.95
2018-03-23T11:24:20.772Z,8.15
2018-03-23T11:26:48.851Z,10.60
2018-03-23T11:29:16.998Z,9.00
2018-03-23T11:31:45.096Z,8.93
2018-03-23T11:34:13.189Z,10.15
2018-03-23T11:36:41.316Z,10.63
2018-03-23T11:39:09.714Z,7.60
2018-03-23T11:41:37.806Z,9.55
2018-03-23T11:44:05.948Z,10.20
2018-03-23T11:46:34.159Z,10.75
2018-03-23T11:49:02.309Z,10.65
2018-03-23T11:51:30.441Z,8.00
2018-03-23T11:53:58.538Z,10.45
2018-03-23T11:56:26.689Z,10.20
2018-03-23T11:58:54.790Z,9.85
2018-03-23T12:01:22.918Z,9.65
2018-03-23T12:03:50.990Z,9.90
2018-03-23T12:06:19.892Z,9.30
2018-03-23T12:08:47.994Z,9.60
2018-03-23T12:11:16.096Z,11.00
2018-03-23T12:13:44.206Z,7.57
2018-03-23T12:16:12.384Z,9.95
2018-03-23T12:18:40.590Z,11.12
2018-03-23T12:21:09.000Z,10.85
2018-03-23T12:23:37.322Z,10.85
2018-03-23T12:26:05.411Z,8.95
2018-03-23T12:28:33.565Z,11.00
2018-03-23T12:31:02.392Z,9.82
2018-03-23T12:33:30.481Z,6.97
2018-03-23T12:35:58.632Z,10.95
2018-03-23T12:38:26.784Z,9.98
2018-03-23T12:40:54.917Z,10.20
2018-03-23T12:43:23.032Z,10.40
2018-03-23T12:45:51.133Z,9.93
2018-03-23T12:48:20.220Z,11.10
2018-03-23T12:50:48.343Z,10.98
2018-03-23T12:53:16.398Z,10.63
2018-03-23T12:55:44.511Z,10.05
2018-03-23T12:58:12.713Z,10.82
2018-03-23T13:00:41.670Z,10.60
2018-03-23T13:03:09.783Z,11.18
2018-03-23T13:05:37.881Z,6.57
2018-03-23T13:08:06.263Z,10.57
2018-03-23T13:10:36.003Z,10.07
2018-03-23T13:13:04.109Z,9.88
2018-03-23T13:15:32.214Z,10.63
2018-03-23T13:18:00.336Z,11.63
2018-03-23T13:20:28.434Z,10.73
2018-03-23T13:22:56.566Z,9.57
2018-03-23T13:25:24.693Z,10.13
2018-03-23T13:27:52.822Z,9.90
2018-03-23T13:30:20.994Z,10.18
2018-03-23T13:32:49.068Z,11.57
2018-03-23T13:35:17.195Z,6.37
2018-03-23T13:37:45.314Z,11.52
2018-03-23T13:40:13.486Z,9.23
2018-03-23T13:42:41.654Z,10.90
2018-03-23T13:45:09.742Z,10.45
2018-03-23T13:47:37.844Z,11.10
2018-03-23T13:50:05.974Z,10.93
2018-03-23T13:52:34.098Z,9.95
2018-03-23T13:55:02.564Z,9.68
2018-03-23T13:57:31.206Z,11.27
2018-03-23T13:59:59.376Z,11.23
2018-03-23T14:02:27.490Z,11.45
2018-03-23T14:04:55.930Z,9.63
2018-03-23T14:07:24.004Z,11.15
2018-03-23T14:09:52.146Z,11.18
2018-03-23T14:12:21.030Z,11.30
2018-03-23T14:14:49.132Z,11.35
2018-03-23T14:17:17.237Z,9.65
2018-03-23T14:19:45.330Z,11.60
2018-03-23T14:22:14.224Z,12.05
2018-03-23T14:24:42.344Z,11.05
2018-03-23T14:27:10.442Z,11.48
2018-03-23T14:29:38.591Z,11.95
2018-03-23T14:32:06.708Z,13.20
2018-03-23T14:34:35.626Z,11.98
2018-03-23T14:37:03.746Z,12.65
2018-03-23T14:39:31.822Z,11.18
2018-03-23T14:41:59.959Z,12.02
2018-03-23T14:44:28.778Z,12.15
2018-03-23T14:46:56.921Z,12.95
2018-03-23T14:49:25.744Z,12.40
2018-03-23T14:51:53.843Z,13.32
2018-03-23T14:54:21.946Z,12.45
2018-03-23T14:56:50.075Z,13.18
2018-03-23T14:59:18.176Z,13.48
2018-03-23T15:01:46.322Z,13.65
2018-03-23T15:04:14.414Z,13.98
2018-03-23T15:06:42.635Z,13.93
2018-03-23T15:09:16.982Z,11.73
2018-03-23T15:11:50.527Z,13.57
2018-03-23T15:14:19.410Z,13.25
2018-03-23T15:16:47.782Z,13.98
2018-03-23T15:19:15.945Z,12.85
2018-03-23T15:21:44.102Z,15.55
2018-03-23T15:24:12.190Z,14.07
2018-03-23T15:26:41.242Z,18.00
2018-03-23T15:29:09.371Z,15.07
2018-03-23T15:31:37.484Z,14.65
2018-03-23T15:34:06.086Z,13.23
2018-03-23T15:36:34.213Z,13.90
2018-03-23T15:39:02.313Z,12.95
2018-03-23T15:41:30.452Z,14.07
2018-03-23T15:43:59.242Z,14.70
2018-03-23T15:46:27.336Z,13.32
2018-03-23T15:48:55.461Z,13.55
2018-03-23T15:51:24.245Z,15.85
2018-03-23T15:53:52.332Z,15.18
2018-03-23T15:56:21.322Z,14.13
2018-03-23T15:58:49.400Z,14.60
2018-03-23T16:01:17.535Z,16.33
2018-03-23T16:03:45.682Z,13.45
2018-03-23T16:06:13.765Z,16.70
2018-03-23T16:08:42.660Z,17.23
2018-03-23T16:11:11.510Z,16.95
2018-03-23T16:13:39.607Z,17.15
2018-03-23T16:16:07.707Z,15.25
2018-03-23T16:18:35.878Z,16.75
2018-03-23T16:21:04.068Z,17.23
2018-03-23T16:23:32.442Z,15.27
2018-03-23T16:26:00.536Z,15.18
2018-03-23T16:28:28.643Z,15.85
2018-03-23T16:30:56.748Z,14.85
2018-03-23T16:33:24.873Z,14.98
2018-03-23T16:35:52.976Z,13.30
2018-03-23T16:38:21.225Z,14.43
2018-03-23T16:40:49.411Z,12.35
2018-03-23T16:43:17.516Z,13.73
2018-03-23T16:45:45.797Z,13.32
2018-03-23T16:48:13.941Z,14.18
2018-03-23T16:50:42.079Z,14.38
2018-03-23T16:53:10.877Z,13.60
2018-03-23T17:08:39.067Z,13.15
2018-03-23T17:11:07.661Z,13.43
2018-03-23T17:13:35.909Z,14.65
2018-03-23T17:16:04.066Z,13.95
2018-03-23T17:18:32.185Z,13.45
2018-03-23T17:21:00.350Z,13.35
2018-03-23T17:23:28.572Z,14.02
2018-03-23T17:25:57.107Z,11.07
2018-03-23T17:28:25.200Z,12.23
2018-03-23T17:30:53.394Z,13.77
2018-03-23T17:46:21.517Z,12.45
2018-03-23T17:48:49.826Z,10.50
2018-03-23T17:51:18.047Z,13.10
2018-03-23T17:53:46.211Z,12.20
2018-03-23T17:56:14.412Z,12.60
2018-03-23T17:58:47.446Z,12.05
2018-03-23T18:01:15.755Z,12.88
2018-03-23T18:03:43.869Z,11.77
2018-03-23T18:06:11.986Z,12.25
2018-03-23T18:08:40.344Z,13.25
2018-03-23T18:11:08.459Z,13.07
2018-03-23T18:13:36.552Z,13.20
2018-03-23T18:16:04.701Z,11.63
2018-03-23T18:18:33.275Z,13.02
2018-03-23T18:21:01.641Z,11.63
2018-03-23T18:23:29.970Z,12.70
2018-03-23T18:25:58.293Z,12.82
2018-03-23T18:28:26.602Z,13.40
2018-03-23T18:30:54.917Z,12.85
2018-03-23T18:33:23.272Z,12.95
2018-03-23T18:35:51.441Z,12.73
2018-03-23T18:38:19.599Z,13.43
2018-03-23T18:40:47.932Z,13.32
2018-03-23T18:43:17.404Z,14.07
2018-03-23T18:45:45.529Z,13.35
2018-03-23T18:48:14.421Z,13.93
2018-03-23T18:50:42.503Z,13.10
2018-03-23T18:53:10.841Z,14.68
2018-03-23T18:55:39.008Z,14.07
2018-03-23T18:58:07.355Z,14.38
2018-03-23T19:00:35.849Z,15.32
2018-03-23T19:03:04.555Z,14.98
2018-03-23T19:05:33.108Z,13.60
2018-03-23T19:08:01.461Z,14.40
2018-03-23T19:10:30.626Z,14.40
2018-03-23T19:12:58.741Z,14.73
2018-03-23T19:15:26.908Z,14.63
2018-03-23T19:17:55.159Z,13.07
2018-03-23T19:20:23.281Z,14.43
2018-03-23T19:22:51.601Z,14.23
2018-03-23T19:25:19.958Z,14.82
2018-03-23T19:27:48.230Z,13.95
2018-03-23T19:30:16.382Z,14.57
2018-03-23T19:32:44.666Z,13.20
2018-03-23T19:35:13.033Z,15.75
2018-03-23T19:37:43.103Z,14.68
2018-03-23T19:40:11.205Z,14.93
2018-03-23T19:42:40.215Z,14.85
2018-03-23T19:45:08.358Z,14.48
2018-03-23T19:47:36.642Z,14.68
2018-03-23T19:50:05.016Z,14.38
2018-03-23T19:52:33.145Z,14.40
2018-03-23T19:55:01.548Z,14.70
2018-03-23T19:57:29.963Z,15.63
2018-03-23T19:59:58.395Z,16.50
2018-03-23T20:02:26.665Z,15.40
2018-03-23T20:04:54.863Z,15.93
2018-03-23T20:20:28.677Z,18.52
2018-03-23T20:22:56.811Z,20.10
2018-03-23T20:25:25.295Z,19.67
2018-03-23T20:28:00.202Z,21.30
2018-03-23T20:30:28.296Z,19.50
2018-03-23T20:32:57.126Z,20.27
2018-03-23T20:35:25.265Z,19.20
2018-03-23T20:37:53.366Z,20.90
2018-03-23T20:40:21.499Z,21.37
2018-03-23T20:42:49.639Z,21.15
2018-03-23T20:45:17.761Z,21.90
2018-03-23T20:47:45.899Z,20.92
2018-03-23T20:50:14.035Z,20.65
2018-03-23T20:52:42.166Z,22.65
2018-03-23T20:55:10.266Z,20.30
2018-03-23T20:57:38.988Z,22.98
2018-03-23T21:00:07.198Z,22.60
2018-03-23T21:02:35.496Z,22.87
2018-03-23T21:05:03.698Z,22.40
2018-03-23T21:07:31.938Z,19.37
2018-03-23T21:10:00.133Z,21.42
2018-03-23T21:12:28.191Z,23.75
2018-03-23T21:14:56.408Z,21.55
2018-03-23T21:17:29.488Z,22.73
2018-03-23T21:19:57.586Z,21.67
2018-03-23T21:25:01.251Z,24.10
2018-03-23T21:27:29.370Z,24.52
2018-03-23T21:29:57.483Z,23.30
2018-03-23T21:32:26.295Z,22.60
2018-03-23T21:34:54.489Z,25.20
2018-03-23T21:37:22.624Z,22.23
2018-03-23T21:39:50.832Z,24.55
2018-03-23T21:42:18.958Z,23.77
2018-03-23T21:44:47.153Z,24.98
2018-03-23T21:47:15.246Z,24.00
2018-03-23T21:49:43.347Z,25.95
2018-03-23T21:52:11.466Z,23.65
2018-03-23T21:54:39.580Z,23.90
2018-03-23T21:57:07.675Z,23.30
2018-03-23T21:59:35.772Z,23.80
2018-03-23T22:02:03.890Z,23.45
2018-03-23T22:04:31.994Z,24.10
2018-03-23T22:07:00.098Z,23.50
2018-03-23T22:09:28.197Z,22.33
2018-03-23T22:11:56.328Z,23.12
2018-03-23T22:14:24.418Z,21.48
2018-03-23T22:16:52.514Z,22.60
2018-03-23T22:19:20.641Z,23.98
2018-03-23T22:21:48.746Z,23.92
2018-03-23T22:24:16.846Z,22.75
2018-03-23T22:26:44.958Z,24.12
2018-03-23T22:29:13.100Z,23.70
2018-03-23T22:31:41.213Z,22.75
2018-03-23T22:34:09.606Z,21.25
2018-03-23T22:36:37.690Z,23.27
2018-03-23T22:39:05.796Z,24.23
2018-03-23T22:41:35.039Z,25.08
2018-03-23T22:44:03.140Z,24.80
2018-03-23T22:46:31.294Z,24.15
2018-03-23T22:49:00.446Z,23.60
2018-03-23T22:51:28.574Z,25.92
2018-03-23T22:53:56.737Z,25.80
2018-03-23T22:56:24.836Z,24.52
2018-03-23T22:58:52.934Z,23.50
2018-03-23T23:01:21.042Z,23.02
2018-03-23T23:03:49.158Z,22.90
2018-03-23T23:06:17.252Z,23.87
2018-03-23T23:08:45.352Z,22.42
2018-03-23T23:11:13.460Z,21.17
2018-03-23T23:13:41.571Z,23.23
2018-03-23T23:16:09.649Z,23.40
2018-03-23T23:18:37.764Z,22.90
2018-03-23T23:21:05.873Z,22.00
2018-03-23T23:23:33.950Z,22.55
2018-03-23T23:26:02.070Z,22.67
2018-03-23T23:28:30.412Z,21.20
2018-03-23T23:30:58.510Z,21.52
2018-03-23T23:33:26.747Z,22.73
2018-03-23T23:35:54.842Z,21.92
2018-03-23T23:38:22.930Z,22.15
2018-03-23T23:40:51.095Z,22.40
2018-03-23T23:43:19.167Z,22.37
2018-03-23T23:45:47.270Z,21.40
2018-03-23T23:48:15.392Z,21.42
2018-03-23T23:50:43.495Z,19.77
2018-03-23T23:53:11.643Z,20.20
2018-03-23T23:55:39.723Z,19.85
2018-03-23T23:58:07.821Z,18.90
